Time;durP1;ratioP1;P1;durP2;ratioP2;P2;SDS_P1;SDS_P2;PMS_P1;PMS_P2;Temp;Humidity;BMP_temperature;BMP_pressure;BME280_temperature;BME280_humidity;BME280_pressure;Samples;Min_cycle;Max_cycle;Signal;HPM_P1;HPM_P2
2023/05/11 00:01:41;;;;;;;51.53;27.45;;;;;;;-144.73;100.00;54337.91;4995979;28;20040;-72
2023/05/11 00:04:07;;;;;;;40.65;23.92;;;;;;;-144.73;100.00;54391.28;5012349;28;20021;-74
2023/05/11 00:06:33;;;;;;;45.60;24.02;;;;;;;-144.73;100.00;54354.34;5011030;28;20053;-73
2023/05/11 00:08:58;;;;;;;43.92;23.70;;;;;;;-144.73;100.00;54346.13;5022041;28;20033;-72
2023/05/11 00:11:24;;;;;;;41.10;22.08;;;;;;;-144.73;100.00;54337.91;5015425;28;20029;-73
2023/05/11 00:13:49;;;;;;;46.83;24.75;;;;;;;-144.73;100.00;54378.97;5016142;28;20099;-73
2023/05/11 00:16:15;;;;;;;41.35;23.13;;;;;;;-144.73;100.00;54342.03;5012749;28;20029;-73
2023/05/11 00:18:40;;;;;;;49.20;27.73;;;;;;;-144.73;100.00;54358.44;5000020;28;20036;-73
2023/05/11 00:21:06;;;;;;;46.22;26.48;;;;;;;-144.73;100.00;54391.28;5012278;28;20036;-73
2023/05/11 00:23:32;;;;;;;53.20;27.35;;;;;;;-144.73;100.00;54333.81;5000357;28;20036;-73
2023/05/11 00:25:57;;;;;;;50.00;27.40;;;;;;;-144.73;100.00;54376.91;5014251;28;20020;-73
2023/05/11 00:28:22;;;;;;;55.90;29.90;;;;;;;-144.73;100.00;54374.84;5024469;28;20028;-73
2023/05/11 00:30:48;;;;;;;49.35;26.42;;;;;;;-144.73;100.00;54354.34;5015891;28;20071;-73
2023/05/11 00:33:13;;;;;;;58.33;30.33;;;;;;;-144.73;100.00;54337.91;5028822;28;20037;-73
2023/05/11 00:35:38;;;;;;;51.15;27.63;;;;;;;-144.73;100.00;54339.97;5029887;28;20026;-73
2023/05/11 00:38:04;;;;;;;53.88;27.95;;;;;;;-144.73;100.00;54368.69;5006536;28;20045;-73
2023/05/11 00:40:30;;;;;;;56.80;28.80;;;;;;;-144.73;100.00;54317.38;5014700;28;20029;-73
2023/05/11 00:42:55;;;;;;;56.85;28.08;;;;;;;-144.73;100.00;54383.06;5005629;28;20037;-73
2023/05/11 00:45:21;;;;;;;59.80;29.33;;;;;;;-144.73;100.00;54391.28;5023030;28;20025;-73
2023/05/11 00:47:46;;;;;;;49.30;27.58;;;;;;;-144.73;100.00;54350.22;5006866;28;20036;-73
2023/05/11 00:50:11;;;;;;;45.97;24.05;;;;;;;-144.73;100.00;54342.03;5015598;28;20104;-73
2023/05/11 00:52:37;;;;;;;48.20;25.65;;;;;;;-144.73;100.00;54366.66;5015228;28;20037;-73
2023/05/11 00:55:02;;;;;;;48.42;25.20;;;;;;;-144.73;100.00;54378.97;5024572;28;20034;-73
2023/05/11 00:57:30;;;;;;;45.30;25.80;;;;;;;-144.73;100.00;54354.34;5003338;28;20034;-73
2023/05/11 00:59:56;;;;;;;44.45;24.90;;;;;;;-144.73;100.00;54358.44;5021859;28;20041;-74
2023/05/11 01:02:21;;;;;;;45.10;25.20;;;;;;;-144.73;100.00;54350.22;4996412;28;20077;-73
2023/05/11 01:04:47;;;;;;;52.55;27.75;;;;;;;-144.73;100.00;54374.84;5008245;28;20120;-73
2023/05/11 01:07:18;;;;;;;47.63;25.55;;;;;;;-144.73;100.00;54366.66;5025460;28;20421;-74
2023/05/11 01:09:54;;;;;;;45.75;24.75;;;;;;;-144.73;100.00;54399.50;5007470;28;20034;-74
2023/05/11 01:12:26;;;;;;;51.70;27.80;;;;;;;-144.73;100.00;54358.44;5003090;28;20030;-74
2023/05/11 01:15:11;;;;;;;45.03;26.15;;;;;;;-144.73;100.00;54358.44;5028282;28;20053;-73
2023/05/11 01:17:46;;;;;;;53.30;25.27;;;;;;;-144.73;100.00;54344.06;5028436;28;20033;-74
2023/05/11 01:20:18;;;;;;;43.33;23.20;;;;;;;-144.73;100.00;54391.28;5011248;28;20021;-74
2023/05/11 01:23:05;;;;;;;50.40;26.48;;;;;;;-144.73;100.00;54362.53;5019694;28;20052;-74
2023/05/11 01:25:46;;;;;;;50.13;26.33;;;;;;;-144.73;100.00;54366.66;5031243;28;20049;-74
2023/05/11 01:28:25;;;;;;;50.80;27.30;;;;;;;-144.73;100.00;54366.66;5024042;28;20050;-73
2023/05/11 01:30:53;;;;;;;49.97;28.27;;;;;;;-144.73;100.00;54378.97;5021297;28;20105;-73
2023/05/11 01:33:25;;;;;;;47.90;25.20;;;;;;;-144.73;100.00;54354.34;5031704;28;20368;-74
2023/05/11 01:35:55;;;;;;;59.33;29.77;;;;;;;-144.73;100.00;54362.53;5011892;28;20028;-73
2023/05/11 01:38:25;;;;;;;49.65;25.08;;;;;;;-144.73;100.00;54354.34;5014427;28;20055;-73
2023/05/11 01:40:55;;;;;;;42.47;23.98;;;;;;;-144.73;100.00;54407.69;5002576;28;20026;-73
2023/05/11 01:43:24;;;;;;;33.03;18.55;;;;;;;-144.73;100.00;54346.13;5003339;28;20401;-74
2023/05/11 01:45:52;;;;;;;28.38;16.83;;;;;;;-144.73;100.00;54333.81;5011467;28;20081;-72
2023/05/11 01:48:22;;;;;;;25.15;15.80;;;;;;;-144.73;100.00;54366.66;5027270;28;20105;-72
2023/05/11 01:50:49;;;;;;;23.85;13.43;;;;;;;-144.73;100.00;54364.59;5003902;28;20050;-72
2023/05/11 01:53:16;;;;;;;26.38;14.68;;;;;;;-144.73;100.00;54383.06;5030616;28;20049;-72
2023/05/11 01:55:43;;;;;;;25.17;15.63;;;;;;;-144.73;100.00;54378.97;5006637;28;20041;-73
2023/05/11 01:58:12;;;;;;;25.73;15.70;;;;;;;-144.73;100.00;54366.66;5009719;28;20475;-73
2023/05/11 02:00:37;;;;;;;26.58;15.68;;;;;;;-144.73;100.00;54387.19;5020395;28;20021;-73
2023/05/11 02:03:04;;;;;;;24.30;14.63;;;;;;;-144.73;100.00;54378.97;5003799;28;20037;-73
2023/05/11 02:05:33;;;;;;;29.27;16.27;;;;;;;-144.73;100.00;54407.69;5005632;28;20117;-74
2023/05/11 02:08:01;;;;;;;26.98;16.02;;;;;;;-144.73;100.00;54350.22;5009606;28;20029;-73
2023/05/11 02:10:28;;;;;;;32.17;17.58;;;;;;;-144.73;100.00;54374.84;5013905;28;20021;-73
2023/05/11 02:12:55;;;;;;;31.33;17.88;;;;;;;-144.73;100.00;54325.59;5006526;28;20057;-74
2023/05/11 02:15:22;;;;;;;27.38;16.40;;;;;;;-144.73;100.00;54383.06;5003955;28;20013;-73
2023/05/11 02:17:50;;;;;;;27.00;16.60;;;;;;;-144.73;100.00;54370.75;5002319;28;20021;-73
2023/05/11 02:20:16;;;;;;;30.27;18.02;;;;;;;-144.73;100.00;54378.97;5000799;28;20026;-73
2023/05/11 02:22:42;;;;;;;30.92;17.80;;;;;;;-144.73;100.00;54362.53;5010142;28;20033;-73
2023/05/11 02:25:08;;;;;;;31.85;17.67;;;;;;;-144.73;100.00;54358.44;5026564;28;20032;-73
2023/05/11 02:27:37;;;;;;;28.83;17.08;;;;;;;-144.73;100.00;54329.72;5030492;28;20033;-74
2023/05/11 02:30:07;;;;;;;32.33;18.90;;;;;;;-144.73;100.00;54360.50;5010969;28;20573;-74
2023/05/11 02:32:36;;;;;;;30.40;17.52;;;;;;;-144.73;100.00;54387.19;5009865;28;20033;-74
2023/05/11 02:35:09;;;;;;;33.97;18.50;;;;;;;-144.73;100.00;54366.66;5009452;28;20018;-74
2023/05/11 02:37:40;;;;;;;30.20;17.92;;;;;;;-144.73;100.00;54374.84;5016608;28;20113;-73
2023/05/11 02:40:13;;;;;;;30.50;17.60;;;;;;;-144.73;100.00;54383.06;5008863;28;20171;-73
2023/05/11 02:42:41;;;;;;;33.08;18.95;;;;;;;-144.73;100.00;54358.44;5004143;28;20109;-73
2023/05/11 02:45:10;;;;;;;32.25;18.90;;;;;;;-144.73;100.00;54407.69;5017944;28;20033;-73
2023/05/11 02:47:41;;;;;;;35.90;19.50;;;;;;;-144.73;100.00;54366.66;5006221;28;20125;-73
2023/05/11 02:50:08;;;;;;;33.15;19.23;;;;;;;-144.73;100.00;54350.22;5004393;28;20033;-73
2023/05/11 02:52:39;;;;;;;31.60;18.95;;;;;;;-144.73;100.00;54407.69;5019720;28;20033;-73
2023/05/11 02:55:06;;;;;;;34.00;19.00;;;;;;;-144.73;100.00;54407.69;5022798;28;20025;-73
2023/05/11 02:57:31;;;;;;;29.13;17.75;;;;;;;-144.73;100.00;54346.13;5009037;28;20022;-73
2023/05/11 02:59:57;;;;;;;33.83;19.63;;;;;;;-144.73;100.00;54366.66;5010335;28;20094;-73
2023/05/11 03:02:23;;;;;;;41.35;22.98;;;;;;;-144.73;100.00;54372.81;5010334;28;20120;-73
2023/05/11 03:04:48;;;;;;;32.75;19.42;;;;;;;-144.73;100.00;54422.06;5000007;28;20022;-73
2023/05/11 03:07:14;;;;;;;35.45;19.63;;;;;;;-144.73;100.00;54350.22;5022292;28;20395;-73
2023/05/11 03:09:39;;;;;;;42.42;21.80;;;;;;;-144.73;100.00;54393.34;5016694;28;20018;-73
2023/05/11 03:12:05;;;;;;;36.80;20.08;;;;;;;-144.73;100.00;54370.75;5004404;28;20108;-73
2023/05/11 03:14:32;;;;;;;34.95;19.75;;;;;;;-144.73;100.00;54407.69;5010040;28;20053;-73
2023/05/11 03:16:59;;;;;;;38.17;20.75;;;;;;;-144.73;100.00;54350.22;5001560;28;20034;-74
2023/05/11 03:19:27;;;;;;;37.90;20.45;;;;;;;-144.73;100.00;54374.84;5021856;28;20045;-73
2023/05/11 03:21:53;;;;;;;34.30;19.27;;;;;;;-144.73;100.00;54368.69;5024080;28;20423;-74
2023/05/11 03:24:19;;;;;;;34.80;18.98;;;;;;;-144.73;100.00;54407.69;5025781;28;20021;-74
2023/05/11 03:26:46;;;;;;;37.10;19.85;;;;;;;-144.73;100.00;54374.84;5006048;28;20034;-73
2023/05/11 03:29:13;;;;;;;35.05;19.35;;;;;;;-144.73;100.00;54370.75;5016647;28;20033;-72
2023/05/11 03:31:38;;;;;;;42.17;21.15;;;;;;;-144.73;100.00;54374.84;4999760;28;20037;-73
2023/05/11 03:34:04;;;;;;;38.92;20.58;;;;;;;-144.73;100.00;54364.59;5005676;28;20029;-74
2023/05/11 03:36:31;;;;;;;40.55;21.33;;;;;;;-144.73;100.00;54366.66;5024314;28;20042;-73
2023/05/11 03:38:57;;;;;;;41.70;21.75;;;;;;;-144.73;100.00;54387.19;5007088;28;20043;-73
2023/05/11 03:41:26;;;;;;;40.72;21.67;;;;;;;-144.73;100.00;54391.28;5018129;28;20033;-73
2023/05/11 03:43:54;;;;;;;39.38;21.65;;;;;;;-144.73;100.00;54368.69;5000989;28;20104;-73
2023/05/11 03:46:21;;;;;;;40.13;20.42;;;;;;;-144.73;100.00;54387.19;5006822;28;20044;-73
2023/05/11 03:48:47;;;;;;;42.22;21.02;;;;;;;-144.73;100.00;54370.75;5022863;28;20032;-72
2023/05/11 03:51:13;;;;;;;39.10;20.52;;;;;;;-144.73;100.00;54378.97;5021657;28;20038;-72
2023/05/11 03:53:39;;;;;;;40.63;21.33;;;;;;;-144.73;100.00;54370.75;5005787;28;20079;-73
2023/05/11 03:56:08;;;;;;;41.90;21.33;;;;;;;-144.73;100.00;54354.34;5010068;28;20022;-74
2023/05/11 03:58:39;;;;;;;45.38;23.88;;;;;;;-144.73;100.00;54368.69;5006567;28;20033;-73
2023/05/11 04:01:05;;;;;;;44.35;21.95;;;;;;;-144.73;100.00;54393.34;5021241;28;20060;-73
2023/05/11 04:03:31;;;;;;;50.65;25.95;;;;;;;-144.73;100.00;54395.38;5019205;28;20037;-73
2023/05/11 04:05:56;;;;;;;55.42;27.35;;;;;;;-144.73;100.00;54370.75;5021118;28;20041;-74
2023/05/11 04:08:22;;;;;;;61.40;28.77;;;;;;;-144.73;100.00;54395.38;5002500;28;20112;-72
2023/05/11 04:10:47;;;;;;;55.15;26.95;;;;;;;-144.73;100.00;54381.00;5005264;28;20041;-72
2023/05/11 04:13:12;;;;;;;62.92;29.23;;;;;;;-144.73;100.00;54387.19;5022318;28;20044;-73
2023/05/11 04:15:37;;;;;;;66.57;28.50;;;;;;;-144.73;100.00;54366.66;5005645;28;20025;-73
2023/05/11 04:18:03;;;;;;;56.90;27.77;;;;;;;-144.73;100.00;54407.69;5002124;28;20077;-73
2023/05/11 04:20:28;;;;;;;54.33;26.95;;;;;;;-144.73;100.00;54342.03;4998581;28;20022;-73
2023/05/11 04:22:53;;;;;;;53.00;24.60;;;;;;;-144.73;100.00;54391.28;5020094;28;20112;-74
2023/05/11 04:25:19;;;;;;;56.60;27.33;;;;;;;-144.73;100.00;54387.19;5001312;28;20022;-74
2023/05/11 04:27:44;;;;;;;49.65;25.98;;;;;;;-144.73;100.00;54374.84;4999263;28;20030;-74
2023/05/11 04:30:10;;;;;;;59.03;26.42;;;;;;;-144.73;100.00;54407.69;5025117;28;20025;-74
2023/05/11 04:32:35;;;;;;;50.75;23.73;;;;;;;-144.73;100.00;54395.38;5010443;28;20097;-74
2023/05/11 04:35:00;;;;;;;57.10;26.67;;;;;;;-144.73;100.00;54420.00;5001675;28;20033;-73
2023/05/11 04:37:26;;;;;;;40.03;19.55;;;;;;;-144.73;100.00;54397.44;5018345;28;20030;-74
2023/05/11 04:39:51;;;;;;;38.40;20.77;;;;;;;-144.73;100.00;54387.19;5009715;28;20041;-74
2023/05/11 04:42:17;;;;;;;35.22;18.63;;;;;;;-144.73;100.00;54395.38;5009908;28;20119;-72
2023/05/11 04:44:42;;;;;;;28.83;16.08;;;;;;;-144.73;100.00;54366.66;5016178;28;20030;-74
2023/05/11 04:47:08;;;;;;;27.35;14.65;;;;;;;-144.73;100.00;54383.06;5006157;28;20061;-74
2023/05/11 04:49:33;;;;;;;29.02;14.65;;;;;;;-144.73;100.00;54407.69;5000268;28;20099;-74
2023/05/11 04:51:59;;;;;;;33.28;16.60;;;;;;;-144.73;100.00;54378.97;5006768;28;20033;-74
2023/05/11 04:54:24;;;;;;;36.47;17.10;;;;;;;-144.73;100.00;54407.69;5007499;28;20036;-73
2023/05/11 04:56:49;;;;;;;39.25;18.00;;;;;;;-144.73;100.00;54385.13;5011381;28;20033;-74
2023/05/11 04:59:15;;;;;;;33.55;17.65;;;;;;;-144.73;100.00;54428.22;5009851;28;20033;-74
2023/05/11 05:01:40;;;;;;;31.23;16.35;;;;;;;-144.73;100.00;54420.00;5004505;28;20041;-73
2023/05/11 05:04:06;;;;;;;53.75;32.00;;;;;;;-144.73;100.00;54395.38;5026810;28;20064;-73
2023/05/11 05:06:31;;;;;;;35.03;18.75;;;;;;;-144.73;100.00;54366.66;5007176;28;20033;-73
2023/05/11 05:08:57;;;;;;;38.28;19.20;;;;;;;-144.73;100.00;54391.28;5007045;28;20147;-73
2023/05/11 05:11:23;;;;;;;37.92;20.20;;;;;;;-144.73;100.00;54383.06;5009734;28;20038;-74
2023/05/11 05:13:48;;;;;;;48.20;21.45;;;;;;;-144.73;100.00;54407.69;5010192;28;20022;-73
2023/05/11 05:16:13;;;;;;;39.97;20.65;;;;;;;-144.73;100.00;54407.69;5023349;28;20025;-74
2023/05/11 05:18:39;;;;;;;35.72;18.92;;;;;;;-144.73;100.00;54383.06;5020532;28;20048;-74
2023/05/11 05:21:04;;;;;;;36.88;18.75;;;;;;;-144.73;100.00;54370.75;5010798;28;20535;-74
2023/05/11 05:23:30;;;;;;;37.53;18.67;;;;;;;-144.73;100.00;54407.69;5008239;28;20020;-75
2023/05/11 05:25:56;;;;;;;28.55;14.38;;;;;;;-144.73;100.00;54391.28;5007782;28;20034;-74
2023/05/11 05:28:21;;;;;;;26.00;13.35;;;;;;;-144.73;100.00;54383.06;5013903;28;20025;-74
2023/05/11 05:30:47;;;;;;;27.83;13.68;;;;;;;-144.73;100.00;54374.84;5000998;28;20496;-74
2023/05/11 05:33:12;;;;;;;29.42;15.20;;;;;;;-144.73;100.00;54383.06;5005695;28;20033;-74
2023/05/11 05:35:37;;;;;;;44.38;23.60;;;;;;;-144.73;100.00;54395.38;5013110;28;20022;-74
2023/05/11 05:38:02;;;;;;;25.75;13.73;;;;;;;-144.73;100.00;54346.13;5013269;28;20053;-74
2023/05/11 05:40:28;;;;;;;31.50;14.27;;;;;;;-144.73;100.00;54337.91;5025171;28;20060;-74
2023/05/11 05:42:53;;;;;;;32.90;14.77;;;;;;;-144.73;100.00;54407.69;5027448;28;20061;-74
2023/05/11 05:45:19;;;;;;;32.38;15.20;;;;;;;-144.73;100.00;54407.69;5009346;28;20049;-74
2023/05/11 05:47:44;;;;;;;30.60;15.65;;;;;;;-144.73;100.00;54413.84;5003694;28;20551;-74
2023/05/11 05:50:10;;;;;;;29.67;15.32;;;;;;;-144.73;100.00;54391.28;5029393;28;20037;-74
2023/05/11 05:52:36;;;;;;;34.97;15.85;;;;;;;-144.73;100.00;54391.28;5009124;28;20101;-74
2023/05/11 05:55:01;;;;;;;34.03;16.48;;;;;;;-144.73;100.00;54411.81;5008770;28;20129;-74
2023/05/11 05:57:29;;;;;;;32.95;16.13;;;;;;;-144.73;100.00;54417.97;5028931;28;20049;-74
2023/05/11 05:59:55;;;;;;;33.47;14.15;;;;;;;-144.73;100.00;54368.69;5020588;28;20045;-74
2023/05/11 06:02:20;;;;;;;30.40;14.93;;;;;;;-144.73;100.00;54378.97;5025500;28;20037;-74
2023/05/11 06:04:46;;;;;;;31.73;15.27;;;;;;;-144.73;100.00;54407.69;5003443;28;20492;-74
2023/05/11 06:07:13;;;;;;;34.08;15.70;;;;;;;-144.73;100.00;54354.34;5007246;28;20409;-74
2023/05/11 06:09:39;;;;;;;34.00;15.27;;;;;;;-144.73;100.00;54432.31;5005399;28;20053;-74
2023/05/11 06:12:05;;;;;;;31.08;14.52;;;;;;;-144.73;100.00;54378.97;5005745;28;20044;-74
2023/05/11 06:14:30;;;;;;;33.88;15.18;;;;;;;-144.73;100.00;54370.75;5006500;28;20026;-74
2023/05/11 06:16:56;;;;;;;40.40;16.92;;;;;;;-144.73;100.00;54422.06;5006427;28;20033;-74
2023/05/11 06:19:21;;;;;;;42.35;18.73;;;;;;;-144.73;100.00;54434.38;5008778;28;20030;-74
2023/05/11 06:21:47;;;;;;;35.00;16.10;;;;;;;-144.73;100.00;54366.66;5025011;28;20147;-74
2023/05/11 06:24:13;;;;;;;43.60;20.85;;;;;;;-144.73;100.00;54415.91;5022497;28;20025;-74
2023/05/11 06:26:39;;;;;;;41.22;17.63;;;;;;;-144.73;100.00;54407.69;5010619;28;20076;-74
2023/05/11 06:29:05;;;;;;;48.10;19.55;;;;;;;-144.73;100.00;54407.69;5009136;28;20045;-74
2023/05/11 06:31:30;;;;;;;46.03;19.50;;;;;;;-144.73;100.00;54387.19;5026459;28;20053;-74
2023/05/11 06:33:56;;;;;;;50.45;20.23;;;;;;;-144.73;100.00;54448.75;5013154;28;20095;-74
2023/05/11 06:36:21;;;;;;;41.22;19.05;;;;;;;-144.73;100.00;54378.97;5010608;28;20033;-74
2023/05/11 06:38:47;;;;;;;57.22;21.95;;;;;;;-144.73;100.00;54413.84;5007386;28;20029;-74
2023/05/11 06:41:12;;;;;;;53.47;21.05;;;;;;;-144.73;100.00;54413.84;5028762;28;20030;-74
2023/05/11 06:43:37;;;;;;;50.90;21.20;;;;;;;-144.73;100.00;54370.75;5006260;28;20017;-74
2023/05/11 06:46:03;;;;;;;57.03;23.48;;;;;;;-144.73;100.00;54407.69;5007404;28;20021;-74
2023/05/11 06:48:29;;;;;;;59.67;22.70;;;;;;;-144.73;100.00;54374.84;5022552;28;20041;-74
2023/05/11 06:50:57;;;;;;;51.05;22.58;;;;;;;-144.73;100.00;54397.44;5004798;28;20021;-73
2023/05/11 06:53:22;;;;;;;64.22;24.27;;;;;;;-144.73;100.00;54417.97;5024838;28;20045;-74
2023/05/11 06:55:47;;;;;;;63.38;24.38;;;;;;;-144.73;100.00;54417.97;5009368;28;20064;-74
2023/05/11 06:58:13;;;;;;;58.20;23.85;;;;;;;-144.73;100.00;54370.75;5023701;28;20046;-73
2023/05/11 07:00:39;;;;;;;60.47;24.52;;;;;;;-144.73;100.00;54395.38;5010368;28;20026;-75
2023/05/11 07:03:05;;;;;;;54.60;22.20;;;;;;;-144.73;100.00;54387.19;5008240;28;20033;-75
2023/05/11 07:05:30;;;;;;;62.58;23.38;;;;;;;-144.73;100.00;54424.13;5012893;28;20029;-75
2023/05/11 07:07:56;;;;;;;67.65;25.48;;;;;;;-144.73;100.00;54407.69;5007155;28;20113;-73
2023/05/11 07:10:21;;;;;;;62.25;25.35;;;;;;;-144.73;100.00;54378.97;4998416;28;20041;-73
2023/05/11 07:12:47;;;;;;;64.50;25.48;;;;;;;-144.73;100.00;54383.06;4999198;28;20030;-73
2023/05/11 07:15:12;;;;;;;52.55;22.65;;;;;;;-144.73;100.00;54428.22;5003719;28;20040;-73
2023/05/11 07:17:37;;;;;;;58.72;24.08;;;;;;;-144.73;100.00;54395.38;5003551;28;20033;-73
2023/05/11 07:20:03;;;;;;;55.90;22.23;;;;;;;-144.73;100.00;54399.50;5005062;28;20152;-73
2023/05/11 07:22:28;;;;;;;68.60;26.17;;;;;;;-144.73;100.00;54387.19;4999887;28;20032;-73
2023/05/11 07:24:54;;;;;;;69.05;24.80;;;;;;;-144.73;100.00;54407.69;5016859;28;20030;-74
2023/05/11 07:27:19;;;;;;;61.40;24.83;;;;;;;-144.73;100.00;54362.53;5017424;28;20034;-74
2023/05/11 07:29:44;;;;;;;55.70;20.98;;;;;;;-144.73;100.00;54395.38;5001367;28;20033;-73
2023/05/11 07:32:10;;;;;;;47.17;20.75;;;;;;;-144.73;100.00;54432.31;5003869;28;20053;-73
2023/05/11 07:34:35;;;;;;;50.70;22.33;;;;;;;-144.73;100.00;54432.31;5015783;28;20040;-75
2023/05/11 07:37:00;;;;;;;53.35;21.55;;;;;;;-144.73;100.00;54436.44;5022206;28;20162;-74
2023/05/11 07:39:26;;;;;;;52.95;20.58;;;;;;;-144.73;100.00;54399.50;5023105;28;20029;-74
2023/05/11 07:41:51;;;;;;;49.45;21.88;;;;;;;-144.73;100.00;54366.66;5003749;28;20040;-73
2023/05/11 07:44:17;;;;;;;51.22;20.95;;;;;;;-144.73;100.00;54366.66;5005108;28;20503;-73
2023/05/11 07:46:42;;;;;;;53.42;22.60;;;;;;;-144.73;100.00;54362.53;5003223;28;20507;-73
2023/05/11 07:49:09;;;;;;;56.30;23.25;;;;;;;-144.73;100.00;54391.28;5024053;28;20021;-73
2023/05/11 07:51:35;;;;;;;55.08;21.60;;;;;;;-144.73;100.00;54428.22;5002668;28;20037;-73
2023/05/11 07:54:01;;;;;;;56.15;22.42;;;;;;;-144.73;100.00;54424.13;5006835;28;20032;-73
2023/05/11 07:56:26;;;;;;;47.40;20.13;;;;;;;-144.73;100.00;54378.97;5022114;28;20076;-73
2023/05/11 07:58:51;;;;;;;52.15;20.55;;;;;;;-144.73;100.00;54407.69;5003151;28;20049;-74
2023/05/11 08:01:17;;;;;;;48.95;19.85;;;;;;;-144.73;100.00;54374.84;5006807;28;20135;-74
2023/05/11 08:03:42;;;;;;;52.25;21.05;;;;;;;-144.73;100.00;54378.97;5004647;28;20048;-73
2023/05/11 08:06:08;;;;;;;50.10;20.05;;;;;;;-144.73;100.00;54395.38;5001249;28;20041;-74
2023/05/11 08:08:33;;;;;;;51.72;20.15;;;;;;;-144.73;100.00;54399.50;5000241;28;20087;-73
2023/05/11 08:11:00;;;;;;;50.28;20.80;;;;;;;-144.73;100.00;54407.69;5011543;28;20020;-74
2023/05/11 08:13:25;;;;;;;44.33;19.35;;;;;;;-144.73;100.00;54407.69;5002230;28;20095;-74
2023/05/11 08:15:50;;;;;;;44.95;18.13;;;;;;;-144.73;100.00;54395.38;5007636;28;20476;-74
2023/05/11 08:18:16;;;;;;;43.88;19.20;;;;;;;-144.73;100.00;54407.69;5000427;28;20103;-74
2023/05/11 08:20:42;;;;;;;53.33;22.23;;;;;;;-144.73;100.00;54456.97;5018660;28;20021;-74
2023/05/11 08:23:09;;;;;;;45.05;19.25;;;;;;;-144.73;100.00;54420.00;5023091;28;20117;-74
2023/05/11 08:25:35;;;;;;;46.65;19.05;;;;;;;-144.73;100.00;54446.69;5004337;28;20017;-74
2023/05/11 08:28:01;;;;;;;45.08;19.05;;;;;;;-144.73;100.00;54395.38;5005151;28;20036;-74
2023/05/11 08:30:26;;;;;;;43.03;18.67;;;;;;;-144.73;100.00;54417.97;5018821;28;20083;-74
2023/05/11 08:32:52;;;;;;;43.67;19.10;;;;;;;-144.73;100.00;54391.28;4999995;28;20033;-74
2023/05/11 08:35:18;;;;;;;45.35;20.65;;;;;;;-144.73;100.00;54436.44;5005474;28;20065;-74
2023/05/11 08:37:43;;;;;;;42.95;19.40;;;;;;;-144.73;100.00;54428.22;5025572;28;20029;-74
2023/05/11 08:40:10;;;;;;;44.35;19.63;;;;;;;-144.73;100.00;54420.00;5011463;28;20021;-74
2023/05/11 08:42:39;;;;;;;41.17;17.85;;;;;;;-144.73;100.00;54407.69;5030138;28;20029;-74
2023/05/11 08:45:05;;;;;;;45.33;20.23;;;;;;;-144.73;100.00;54424.13;5012485;28;20447;-75
2023/05/11 08:47:31;;;;;;;38.88;18.85;;;;;;;-144.73;100.00;54407.69;5009436;28;20053;-74
2023/05/11 08:49:57;;;;;;;44.55;19.13;;;;;;;-144.73;100.00;54407.69;5004492;28;20021;-75
2023/05/11 08:52:24;;;;;;;47.67;19.65;;;;;;;-144.73;100.00;54436.44;5008078;28;20048;-75
2023/05/11 08:54:49;;;;;;;50.05;19.85;;;;;;;-144.73;100.00;54399.50;5008555;28;20025;-75
2023/05/11 08:57:16;;;;;;;47.88;21.30;;;;;;;-144.73;100.00;54391.28;5001757;28;20095;-76
2023/05/11 08:59:48;;;;;;;50.03;21.27;;;;;;;-144.73;100.00;54415.91;5004666;28;20025;-75
2023/05/11 09:02:16;;;;;;;52.20;22.27;;;;;;;-144.73;100.00;54440.53;5009117;28;20037;-76
2023/05/11 09:04:44;;;;;;;48.40;21.35;;;;;;;-144.73;100.00;54448.75;5006073;28;20026;-76
2023/05/11 09:07:10;;;;;;;56.78;23.38;;;;;;;-144.73;100.00;54452.84;5007933;28;20061;-75
2023/05/11 09:09:36;;;;;;;53.35;24.83;;;;;;;-144.73;100.00;54395.38;5024258;28;20024;-76
2023/05/11 09:12:02;;;;;;;58.70;24.70;;;;;;;-144.73;100.00;54415.91;5004599;28;20129;-75
2023/05/11 09:14:28;;;;;;;53.10;21.77;;;;;;;-144.73;100.00;54399.50;5020213;28;20040;-76
2023/05/11 09:16:54;;;;;;;59.17;24.52;;;;;;;-144.73;100.00;54415.91;5004744;28;20029;-75
2023/05/11 09:19:19;;;;;;;65.28;23.55;;;;;;;-144.73;100.00;54428.22;5000957;28;20065;-74
2023/05/11 09:21:46;;;;;;;72.20;25.88;;;;;;;-144.73;100.00;54395.38;5006474;28;20029;-74
2023/05/11 09:24:12;;;;;;;65.22;24.65;;;;;;;-144.73;100.00;54422.06;5002268;28;20050;-73
2023/05/11 09:26:37;;;;;;;61.33;23.67;;;;;;;-144.73;100.00;54415.91;5022267;28;20057;-74
2023/05/11 09:29:03;;;;;;;58.53;23.27;;;;;;;-144.73;100.00;54452.84;5009773;28;20033;-73
2023/05/11 09:31:40;;;;;;;55.90;23.08;;;;;;;-144.73;100.00;54407.69;5008846;28;20025;-73
2023/05/11 09:34:16;;;;;;;61.28;23.60;;;;;;;-144.73;100.00;54444.66;5000769;28;20056;-74
2023/05/11 09:36:52;;;;;;;52.88;22.33;;;;;;;-144.73;100.00;54417.97;4993375;28;20037;-73
2023/05/11 09:39:31;;;;;;;52.78;23.85;;;;;;;-144.73;100.00;54428.22;5009257;28;20040;-74
2023/05/11 09:42:13;;;;;;;47.70;20.70;;;;;;;-144.73;100.00;54448.75;4992249;28;20582;-73
2023/05/11 09:44:40;;;;;;;63.10;22.83;;;;;;;-144.73;100.00;54426.16;5001063;28;20029;-74
2023/05/11 09:47:17;;;;;;;54.30;21.38;;;;;;;-144.73;100.00;54465.16;4990979;28;20084;-73
2023/05/11 09:49:44;;;;;;;47.45;20.48;;;;;;;-144.73;100.00;54436.44;4991172;28;20153;-73
2023/05/11 09:52:14;;;;;;;43.75;17.85;;;;;;;-144.73;100.00;54424.13;4989889;28;20124;-74
2023/05/11 09:54:44;;;;;;;40.95;19.30;;;;;;;-144.73;100.00;54411.81;4989963;28;20050;-74
2023/05/11 09:57:27;;;;;;;48.72;19.88;;;;;;;-144.73;100.00;54420.00;4991367;28;20462;-73
2023/05/11 09:59:54;;;;;;;50.70;20.50;;;;;;;-144.73;100.00;54407.69;4990730;28;20030;-73
2023/05/11 10:02:29;;;;;;;42.42;18.48;;;;;;;-144.73;100.00;54374.84;5021882;28;20086;-73
2023/05/11 10:04:59;;;;;;;41.63;18.13;;;;;;;-144.73;100.00;54444.66;5008995;28;20028;-73
2023/05/11 10:07:29;;;;;;;40.05;18.00;;;;;;;-144.73;100.00;54411.81;5008923;28;20060;-74
2023/05/11 10:10:06;;;;;;;43.85;17.98;;;;;;;-144.73;100.00;54448.75;5010183;28;20053;-73
2023/05/11 10:12:33;;;;;;;34.70;16.55;;;;;;;-144.73;100.00;54432.31;5027992;28;20037;-73
2023/05/11 10:15:06;;;;;;;37.90;16.90;;;;;;;-144.73;100.00;54411.81;5009242;28;20055;-73
2023/05/11 10:17:32;;;;;;;34.25;15.27;;;;;;;-144.73;100.00;54432.31;5026393;28;20037;-73
2023/05/11 10:19:59;;;;;;;35.13;16.38;;;;;;;-144.73;100.00;54411.81;5025625;28;20040;-73
2023/05/11 10:22:27;;;;;;;31.02;14.38;;;;;;;-144.73;100.00;54415.91;5005178;28;20038;-73
2023/05/11 10:24:53;;;;;;;29.42;13.63;;;;;;;-144.73;100.00;54424.13;5005892;28;20060;-72
2023/05/11 10:27:20;;;;;;;27.05;14.38;;;;;;;-144.73;100.00;54407.69;5005894;28;20432;-72
2023/05/11 10:29:46;;;;;;;29.48;14.88;;;;;;;-144.73;100.00;54428.22;5004949;28;20018;-73
2023/05/11 10:32:13;;;;;;;27.95;14.23;;;;;;;-144.73;100.00;54407.69;5009508;28;20501;-72
2023/05/11 10:34:41;;;;;;;26.10;13.20;;;;;;;-144.73;100.00;54424.13;5007158;28;20384;-73
2023/05/11 10:37:07;;;;;;;23.42;11.77;;;;;;;-144.73;100.00;54430.28;5021560;28;20112;-74
2023/05/11 10:39:36;;;;;;;23.75;12.77;;;;;;;-144.73;100.00;54444.66;5009813;28;20037;-73
2023/05/11 10:42:26;;;;;;;27.40;14.45;;;;;;;-144.73;100.00;54417.97;5005684;28;20041;-73
2023/05/11 10:45:07;;;;;;;23.55;11.98;;;;;;;-144.73;100.00;54420.00;5009322;28;20108;-72
2023/05/11 10:48:10;;;;;;;22.40;12.52;;;;;;;-144.73;100.00;54407.69;5026813;28;20108;-74
2023/05/11 10:50:38;;;;;;;25.13;12.82;;;;;;;-144.73;100.00;54420.00;5025418;28;20025;-74
2023/05/11 10:53:32;;;;;;;23.55;11.65;;;;;;;-144.73;100.00;54411.81;5025937;28;20049;-74
2023/05/11 10:56:25;;;;;;;26.13;12.00;;;;;;;-144.73;100.00;54415.91;5016148;28;20028;-74